Time;durP1;ratioP1;P1;durP2;ratioP2;P2;SDS_P1;SDS_P2;PMS_P1;PMS_P2;Temp;Humidity;BMP_temperature;BMP_pressure;BME280_temperature;BME280_humidity;BME280_pressure;Samples;Min_cycle;Max_cycle;Signal;HPM_P1;HPM_P2
2023/05/07 00:01:59;;;;;;;2.20;1.20;;;16.30;71.10;16.50;96398.00;;;;5014093;28;20734;-83
2023/05/07 00:04:27;;;;;;;1.30;1.20;;;16.30;71.20;16.50;96403.00;;;;5013578;28;20304;-83
2023/05/07 00:06:55;;;;;;;1.40;1.30;;;16.30;71.30;16.50;96407.00;;;;5002094;28;20281;-83
2023/05/07 00:09:24;;;;;;;1.97;1.07;;;16.30;71.40;16.50;96403.00;;;;5021516;28;20319;-83
2023/05/07 00:11:51;;;;;;;1.20;1.00;;;16.30;71.70;16.40;96407.00;;;;5013928;28;20205;-83
2023/05/07 00:14:18;;;;;;;3.53;1.10;;;16.30;71.70;16.40;96404.00;;;;5019050;28;20224;-83
2023/05/07 00:16:46;;;;;;;1.53;1.10;;;16.20;71.70;16.40;96399.00;;;;5013281;28;20221;-83
2023/05/07 00:19:13;;;;;;;1.87;1.20;;;16.20;71.80;16.40;96411.00;;;;5014113;28;20198;-83
2023/05/07 00:21:40;;;;;;;1.30;1.20;;;16.20;71.90;16.40;96407.00;;;;4995986;28;20219;-83
2023/05/07 00:24:08;;;;;;;1.63;1.10;;;16.20;72.00;16.40;96401.00;;;;5017565;28;20598;-83
2023/05/07 00:26:37;;;;;;;2.40;0.93;;;16.20;72.00;16.40;96404.00;;;;4981932;28;20248;-83
2023/05/07 00:29:05;;;;;;;1.33;0.90;;;16.20;72.00;16.40;96402.00;;;;5021741;28;20214;-83
2023/05/07 00:31:32;;;;;;;1.80;0.80;;;16.20;72.00;16.40;96397.00;;;;5014528;28;20297;-83
2023/05/07 00:34:00;;;;;;;1.00;1.00;;;16.20;72.10;16.40;96396.00;;;;5010543;28;20224;-82
2023/05/07 00:36:27;;;;;;;1.13;1.03;;;16.20;72.10;16.40;96395.00;;;;5001815;28;20202;-83
2023/05/07 00:38:56;;;;;;;0.90;0.90;;;16.20;72.00;16.40;96397.00;;;;5012306;28;20260;-83
2023/05/07 00:41:23;;;;;;;1.00;1.00;;;16.20;72.10;16.40;96386.00;;;;5016204;28;20993;-83
2023/05/07 00:43:52;;;;;;;1.73;1.07;;;16.20;72.10;16.40;96389.00;;;;5013850;28;20301;-83
2023/05/07 00:46:22;;;;;;;0.97;0.90;;;16.20;71.90;16.30;96392.00;;;;5024866;28;20195;-82
2023/05/07 00:48:51;;;;;;;1.90;1.00;;;16.20;71.80;16.30;96386.00;;;;5017820;28;20704;-83
2023/05/07 00:51:19;;;;;;;1.87;0.90;;;16.10;71.60;16.30;96380.00;;;;4997372;28;20220;-83
2023/05/07 00:53:47;;;;;;;0.70;0.70;;;16.10;71.50;16.30;96386.00;;;;5018176;28;20205;-83
2023/05/07 00:56:15;;;;;;;1.07;0.90;;;16.10;71.60;16.20;96380.00;;;;5020691;28;20212;-83
2023/05/07 00:58:42;;;;;;;1.17;1.10;;;16.10;71.70;16.20;96385.00;;;;4996480;28;20607;-83
2023/05/07 01:01:11;;;;;;;1.13;0.90;;;16.10;71.80;16.20;96382.00;;;;5025451;28;20284;-83
2023/05/07 01:03:38;;;;;;;1.23;0.97;;;16.10;71.90;16.20;96386.00;;;;5013400;28;20301;-83
2023/05/07 01:06:08;;;;;;;1.80;1.00;;;16.00;72.00;16.20;96376.00;;;;5009057;28;20706;-82
2023/05/07 01:08:39;;;;;;;2.57;1.10;;;16.00;72.30;16.20;96377.00;;;;5012393;28;20280;-82
2023/05/07 01:11:08;;;;;;;2.10;0.90;;;16.00;72.30;16.20;96375.00;;;;5018827;28;20193;-82
2023/05/07 01:13:37;;;;;;;1.40;1.30;;;16.00;72.50;16.20;96386.00;;;;5027672;28;20328;-83
2023/05/07 01:16:06;;;;;;;1.27;1.17;;;16.00;72.70;16.20;96378.00;;;;5023534;28;20190;-83
2023/05/07 01:18:37;;;;;;;1.33;1.00;;;16.00;72.70;16.20;96381.00;;;;5016526;28;20214;-83
2023/05/07 01:21:06;;;;;;;1.47;1.03;;;16.00;72.70;16.20;96385.00;;;;5013140;28;20208;-82
2023/05/07 01:23:36;;;;;;;1.20;1.10;;;16.00;72.60;16.20;96380.00;;;;5014448;28;20217;-82
2023/05/07 01:26:03;;;;;;;0.97;0.97;;;16.00;72.70;16.10;96383.00;;;;5018355;28;20198;-82
2023/05/07 01:28:31;;;;;;;0.90;0.90;;;16.00;72.60;16.10;96390.00;;;;5011001;28;20206;-82
2023/05/07 01:31:03;;;;;;;1.80;1.00;;;16.00;72.50;16.10;96386.00;;;;5009231;28;20293;-83
2023/05/07 01:33:35;;;;;;;1.30;0.97;;;16.00;72.60;16.10;96374.00;;;;5012751;28;20213;-82
2023/05/07 01:36:06;;;;;;;1.33;0.87;;;15.90;72.50;16.10;96376.00;;;;5025625;28;20202;-82
2023/05/07 01:38:35;;;;;;;1.37;1.03;;;15.90;72.60;16.10;96368.00;;;;4995882;28;20201;-82
2023/05/07 01:41:07;;;;;;;1.67;0.90;;;15.90;72.70;16.10;96377.00;;;;5027951;28;20286;-83
2023/05/07 01:43:35;;;;;;;1.20;1.10;;;15.90;73.20;16.10;96372.00;;;;5011414;28;20267;-83
2023/05/07 01:46:04;;;;;;;1.20;1.07;;;15.90;72.90;16.10;96374.00;;;;5025641;28;20258;-83
2023/05/07 01:48:33;;;;;;;0.90;0.90;;;15.90;73.00;16.10;96363.00;;;;5032181;28;20255;-83
2023/05/07 01:51:02;;;;;;;3.67;1.27;;;15.90;73.00;16.10;96363.00;;;;5018403;28;20209;-82
2023/05/07 01:53:29;;;;;;;1.33;1.10;;;15.90;73.90;16.10;96374.00;;;;5017218;28;20313;-84
2023/05/07 01:55:57;;;;;;;1.27;1.10;;;15.90;73.20;16.10;96369.00;;;;5019796;28;20277;-84
2023/05/07 01:58:25;;;;;;;1.10;1.00;;;15.90;73.10;16.00;96376.00;;;;5023959;28;20204;-84
2023/05/07 02:00:52;;;;;;;1.30;1.20;;;15.90;73.10;16.00;96378.00;;;;5021658;28;20193;-84
2023/05/07 02:03:19;;;;;;;2.00;1.00;;;15.90;73.10;16.00;96381.00;;;;5012974;28;20222;-84
2023/05/07 02:05:47;;;;;;;1.10;1.00;;;15.80;73.10;15.90;96381.00;;;;5012446;28;20280;-83
2023/05/07 02:08:14;;;;;;;1.37;1.13;;;15.80;73.10;15.90;96379.00;;;;5019977;28;20261;-84
2023/05/07 02:10:41;;;;;;;2.17;1.20;;;15.80;73.10;15.90;96380.00;;;;5030510;28;20673;-84
2023/05/07 02:13:10;;;;;;;1.07;1.00;;;15.80;73.10;15.90;96372.00;;;;5010500;28;20234;-84
2023/05/07 02:15:38;;;;;;;1.20;1.10;;;15.80;73.10;15.90;96377.00;;;;5020453;28;20343;-83
2023/05/07 02:18:09;;;;;;;1.17;1.07;;;15.80;73.00;15.90;96384.00;;;;5009184;28;20194;-84
2023/05/07 02:20:36;;;;;;;1.73;0.87;;;15.80;73.10;15.90;96377.00;;;;5022084;28;20559;-84
2023/05/07 02:23:03;;;;;;;1.27;1.00;;;15.80;73.20;15.90;96389.00;;;;5011993;28;20593;-84
2023/05/07 02:25:31;;;;;;;1.10;1.10;;;15.80;73.20;15.90;96387.00;;;;5014251;28;20284;-83
2023/05/07 02:27:59;;;;;;;1.00;1.00;;;15.70;73.20;15.90;96380.00;;;;5014474;28;20193;-84
2023/05/07 02:30:29;;;;;;;1.30;1.20;;;15.70;73.30;15.90;96383.00;;;;5013735;28;20253;-84
2023/05/07 02:32:57;;;;;;;1.40;1.30;;;15.70;73.40;15.90;96387.00;;;;5027867;28;20214;-84
2023/05/07 02:35:25;;;;;;;1.40;1.30;;;15.70;73.40;15.90;96378.00;;;;5000486;28;20225;-84
2023/05/07 02:37:53;;;;;;;1.63;1.40;;;15.70;73.50;15.90;96380.00;;;;5017176;28;20245;-84
2023/05/07 02:40:20;;;;;;;1.60;1.50;;;15.70;73.60;15.90;96383.00;;;;5023707;28;20237;-84
2023/05/07 02:42:47;;;;;;;3.27;1.60;;;15.70;73.70;15.90;96379.00;;;;4997808;28;20248;-84
2023/05/07 02:45:15;;;;;;;1.80;1.70;;;15.70;73.70;15.90;96376.00;;;;5019170;28;20228;-84
2023/05/07 02:47:44;;;;;;;1.70;1.60;;;15.70;73.70;15.90;96377.00;;;;5023024;28;20202;-84
2023/05/07 02:50:12;;;;;;;1.60;1.50;;;15.70;73.60;15.90;96374.00;;;;5018952;28;20679;-84
2023/05/07 02:52:39;;;;;;;1.73;1.60;;;15.70;73.60;15.90;96383.00;;;;5017810;28;20273;-84
2023/05/07 02:55:08;;;;;;;1.47;1.37;;;15.70;73.50;15.90;96375.00;;;;5016565;28;20194;-84
2023/05/07 02:57:35;;;;;;;1.73;1.50;;;15.70;73.40;15.80;96378.00;;;;5002266;28;20864;-84
2023/05/07 03:00:13;;;;;;;1.60;1.50;;;15.70;73.30;15.80;96366.00;;;;5013829;28;20746;-84
2023/05/07 03:02:44;;;;;;;1.43;1.33;;;15.70;73.20;15.80;96370.00;;;;5014465;28;20747;-84
2023/05/07 03:05:11;;;;;;;1.87;1.73;;;15.70;73.00;15.80;96377.00;;;;5030225;28;20287;-84
2023/05/07 03:07:39;;;;;;;1.40;1.30;;;15.60;72.90;15.70;96378.00;;;;5015876;28;20652;-84
2023/05/07 03:10:07;;;;;;;1.87;1.27;;;15.60;72.90;15.70;96375.00;;;;4998841;28;20244;-84
2023/05/07 03:12:36;;;;;;;1.60;1.50;;;15.60;72.90;15.70;96375.00;;;;5005855;28;20204;-84
2023/05/07 03:15:04;;;;;;;1.33;1.23;;;15.60;72.90;15.70;96372.00;;;;5022657;28;20717;-84
2023/05/07 03:17:31;;;;;;;1.50;1.40;;;15.50;72.90;15.60;96369.00;;;;5014225;28;20206;-84
2023/05/07 03:20:00;;;;;;;1.57;1.47;;;15.80;73.20;15.60;96369.00;;;;5016303;28;20241;-84
2023/05/07 03:22:27;;;;;;;1.47;1.37;;;15.50;73.00;15.60;96367.00;;;;5013445;28;20187;-84
2023/05/07 03:24:54;;;;;;;1.50;1.40;;;15.40;73.10;15.60;96369.00;;;;5019060;28;20208;-84
2023/05/07 03:27:22;;;;;;;1.70;1.60;;;15.40;73.30;15.60;96366.00;;;;5016214;28;20296;-83
2023/05/07 03:29:50;;;;;;;1.60;1.50;;;15.40;73.40;15.50;96370.00;;;;5004239;28;20222;-84
2023/05/07 03:32:17;;;;;;;1.77;1.67;;;15.40;73.50;15.50;96375.00;;;;5013862;28;20230;-84
2023/05/07 03:34:44;;;;;;;2.43;1.60;;;15.40;73.60;15.50;96380.00;;;;5024062;28;20253;-84
2023/05/07 03:37:13;;;;;;;1.83;1.70;;;15.40;73.90;15.50;96370.00;;;;5022667;28;20616;-84
2023/05/07 03:39:40;;;;;;;2.10;1.47;;;15.40;74.10;15.50;96371.00;;;;5020480;28;20264;-84
2023/05/07 03:42:08;;;;;;;1.90;1.57;;;15.40;74.20;15.50;96376.00;;;;5015176;28;20249;-84
2023/05/07 03:44:36;;;;;;;1.83;1.73;;;15.30;74.20;15.50;96366.00;;;;5021880;28;20226;-84
2023/05/07 03:47:03;;;;;;;2.10;1.97;;;15.40;74.40;15.50;96365.00;;;;5014782;28;20214;-84
2023/05/07 03:49:30;;;;;;;2.97;2.10;;;15.30;74.40;15.40;96356.00;;;;5018542;28;20309;-84
2023/05/07 03:51:58;;;;;;;1.87;1.77;;;15.30;74.30;15.40;96365.00;;;;5023041;28;20653;-84
2023/05/07 03:54:26;;;;;;;2.97;1.93;;;15.30;74.40;15.40;96365.00;;;;5014277;28;20711;-84
2023/05/07 03:56:53;;;;;;;1.97;1.83;;;15.30;74.40;15.40;96370.00;;;;5009277;28;20229;-84
2023/05/07 03:59:20;;;;;;;1.83;1.73;;;15.30;74.40;15.50;96367.00;;;;5026372;28;20291;-84
2023/05/07 04:01:48;;;;;;;2.53;1.47;;;15.30;74.40;15.40;96373.00;;;;5020460;28;20221;-84
2023/05/07 04:04:16;;;;;;;2.00;1.80;;;15.30;74.40;15.40;96373.00;;;;5021240;28;20221;-84
2023/05/07 04:06:43;;;;;;;2.97;1.60;;;15.30;74.40;15.40;96375.00;;;;5030890;28;20209;-84
2023/05/07 04:09:10;;;;;;;1.93;1.80;;;15.30;74.40;15.40;96372.00;;;;5022903;28;20222;-84
2023/05/07 04:11:39;;;;;;;2.40;1.63;;;15.30;74.40;15.40;96386.00;;;;5006101;28;20247;-84
2023/05/07 04:14:07;;;;;;;1.70;1.60;;;15.30;74.40;15.40;96393.00;;;;5024879;28;20356;-84
2023/05/07 04:16:35;;;;;;;2.00;1.90;;;15.30;74.30;15.40;96390.00;;;;5016704;28;20281;-84
2023/05/07 04:19:02;;;;;;;1.87;1.67;;;15.20;74.10;15.40;96392.00;;;;5022826;28;20198;-84
2023/05/07 04:21:30;;;;;;;1.83;1.70;;;15.20;74.20;15.30;96399.00;;;;5018552;28;20234;-84
2023/05/07 04:23:58;;;;;;;1.70;1.60;;;15.20;74.30;15.30;96395.00;;;;5022919;28;20221;-84
2023/05/07 04:26:28;;;;;;;1.93;1.80;;;15.20;74.20;15.30;96395.00;;;;4997986;28;20677;-83
2023/05/07 04:29:00;;;;;;;1.63;1.53;;;15.20;74.20;15.30;96409.00;;;;5023548;28;20198;-83
2023/05/07 04:31:28;;;;;;;2.20;1.80;;;15.20;74.30;15.30;96396.00;;;;4996981;28;20217;-84
2023/05/07 04:33:56;;;;;;;1.93;1.80;;;15.20;74.30;15.30;96398.00;;;;5019611;28;20267;-83
2023/05/07 04:36:27;;;;;;;2.40;1.90;;;15.10;74.20;15.30;96408.00;;;;5018084;28;20226;-83
2023/05/07 04:38:54;;;;;;;2.63;1.63;;;15.10;74.40;15.20;96386.00;;;;5024109;28;20256;-84
2023/05/07 04:41:21;;;;;;;1.60;1.50;;;15.10;74.50;15.30;96396.00;;;;5015633;28;20208;-84
2023/05/07 04:43:48;;;;;;;1.80;1.70;;;15.10;74.60;15.30;96400.00;;;;5024346;28;20214;-83
2023/05/07 04:46:19;;;;;;;2.33;1.70;;;15.10;74.70;15.30;96403.00;;;;5014640;28;20310;-84
2023/05/07 04:48:47;;;;;;;1.53;1.43;;;15.10;74.80;15.30;96406.00;;;;5024045;28;20732;-83
2023/05/07 04:51:15;;;;;;;3.03;1.63;;;15.10;74.80;15.30;96402.00;;;;5025949;28;20300;-84
2023/05/07 04:53:43;;;;;;;2.00;1.90;;;15.10;75.50;15.30;96407.00;;;;5024992;28;20233;-83
2023/05/07 04:56:10;;;;;;;2.77;2.13;;;15.10;74.90;15.30;96390.00;;;;5008871;28;20577;-84
2023/05/07 04:58:38;;;;;;;2.23;1.97;;;15.10;75.10;15.40;96398.00;;;;5011908;28;20301;-83
2023/05/07 05:01:05;;;;;;;2.10;2.00;;;15.10;75.30;15.40;96392.00;;;;5016647;28;20232;-83
2023/05/07 05:03:34;;;;;;;2.73;2.23;;;15.20;75.60;15.40;96400.00;;;;5008507;28;20227;-83
2023/05/07 05:06:01;;;;;;;2.07;1.97;;;15.20;75.70;15.50;96408.00;;;;5023334;28;20190;-83
2023/05/07 05:08:32;;;;;;;2.90;2.20;;;15.20;75.80;15.50;96401.00;;;;5015473;28;20194;-83
2023/05/07 05:10:59;;;;;;;2.30;2.20;;;15.30;76.10;15.50;96410.00;;;;5018665;28;20263;-83
2023/05/07 05:13:26;;;;;;;2.30;2.20;;;15.30;76.20;15.60;96414.00;;;;5048962;28;20224;-83
2023/05/07 05:15:54;;;;;;;2.43;2.23;;;15.30;76.30;15.60;96419.00;;;;5049975;28;20214;-82
2023/05/07 05:18:21;;;;;;;2.07;1.97;;;15.40;76.50;15.70;96420.00;;;;5034232;28;20194;-82
2023/05/07 05:20:50;;;;;;;3.20;2.90;;;15.40;76.70;15.70;96423.00;;;;5033095;28;20190;-83
2023/05/07 05:23:17;;;;;;;2.80;2.60;;;15.40;76.80;15.80;96419.00;;;;5044127;28;20228;-83
2023/05/07 05:25:45;;;;;;;2.73;2.53;;;15.50;77.00;15.80;96412.00;;;;5036157;28;20193;-83
2023/05/07 05:28:12;;;;;;;2.70;2.50;;;15.50;77.20;15.90;96414.00;;;;5001473;28;20266;-83
2023/05/07 05:30:40;;;;;;;2.80;2.60;;;15.60;78.20;16.00;96413.00;;;;4998733;28;20224;-83
2023/05/07 05:33:07;;;;;;;2.80;2.60;;;15.60;77.50;16.00;96417.00;;;;5025307;28;20228;-83
2023/05/07 05:35:35;;;;;;;3.57;2.60;;;15.70;77.70;16.10;96421.00;;;;5033394;28;20284;-83
2023/05/07 05:38:04;;;;;;;3.97;2.50;;;15.80;77.80;16.20;96408.00;;;;4998177;28;20201;-83
2023/05/07 05:40:31;;;;;;;2.93;2.70;;;15.80;77.80;16.30;96424.00;;;;5030655;28;20209;-83
2023/05/07 05:42:59;;;;;;;2.50;2.30;;;15.90;77.90;16.40;96419.00;;;;5015669;28;20217;-83
2023/05/07 05:45:26;;;;;;;2.90;2.70;;;16.00;77.90;16.50;96417.00;;;;5012387;28;20771;-83
2023/05/07 05:47:54;;;;;;;2.43;2.23;;;16.00;77.90;16.50;96417.00;;;;5027428;28;20197;-83
2023/05/07 05:50:21;;;;;;;2.30;2.10;;;16.10;77.90;16.60;96423.00;;;;5016101;28;20226;-83
2023/05/07 05:52:49;;;;;;;2.80;2.60;;;16.20;77.90;16.70;96413.00;;;;5002667;28;20606;-83
2023/05/07 05:55:18;;;;;;;2.50;2.40;;;16.20;77.80;16.70;96412.00;;;;5010218;28;20203;-83
2023/05/07 05:57:45;;;;;;;2.53;2.33;;;16.30;77.90;16.80;96419.00;;;;4999610;28;20280;-83
2023/05/07 06:00:14;;;;;;;2.60;2.40;;;16.30;77.80;16.80;96415.00;;;;5030194;28;20205;-82
2023/05/07 06:02:42;;;;;;;2.80;2.30;;;16.20;77.60;16.90;96424.00;;;;5012653;28;20281;-83
2023/05/07 06:05:11;;;;;;;2.63;2.43;;;16.50;77.70;16.90;96414.00;;;;5026077;28;20651;-82
2023/05/07 06:07:38;;;;;;;2.47;2.27;;;16.50;77.60;17.00;96421.00;;;;5010865;28;20564;-82
2023/05/07 06:10:07;;;;;;;2.80;2.60;;;16.60;77.60;17.00;96415.00;;;;5001828;28;20567;-83
2023/05/07 06:12:36;;;;;;;2.60;2.40;;;16.60;77.60;17.10;96416.00;;;;5013489;28;20284;-82
2023/05/07 06:15:05;;;;;;;2.87;2.67;;;16.70;77.50;17.20;96425.00;;;;5026269;28;20194;-83
2023/05/07 06:17:32;;;;;;;2.87;2.67;;;16.70;77.40;17.20;96426.00;;;;5010276;28;20206;-82
2023/05/07 06:19:59;;;;;;;3.80;2.97;;;16.80;77.40;17.30;96434.00;;;;5025247;28;20193;-82
2023/05/07 06:22:27;;;;;;;2.90;2.70;;;16.80;77.30;17.30;96431.00;;;;5006961;28;20284;-82
2023/05/07 06:24:54;;;;;;;2.67;2.50;;;16.90;77.30;17.40;96429.00;;;;5016538;28;20231;-83
2023/05/07 06:27:22;;;;;;;4.03;3.13;;;16.90;77.30;17.40;96430.00;;;;5015564;28;20619;-82
2023/05/07 06:29:51;;;;;;;3.37;3.17;;;17.00;77.20;17.50;96433.00;;;;5018748;28;20273;-82
2023/05/07 06:32:19;;;;;;;3.03;2.67;;;17.10;77.30;17.60;96433.00;;;;4994941;28;20729;-82
2023/05/07 06:34:47;;;;;;;3.17;2.97;;;17.10;77.40;17.60;96439.00;;;;5011709;28;20206;-82
2023/05/07 06:37:14;;;;;;;3.67;3.37;;;17.20;77.50;17.70;96443.00;;;;5002653;28;20224;-82
2023/05/07 06:39:42;;;;;;;3.83;3.53;;;17.30;77.40;17.80;96441.00;;;;5013724;28;20287;-82
2023/05/07 06:42:09;;;;;;;3.40;3.10;;;17.30;78.10;17.80;96441.00;;;;5004190;28;20643;-82
2023/05/07 06:44:36;;;;;;;3.83;3.47;;;17.40;77.30;17.90;96452.00;;;;5022552;28;20214;-82
2023/05/07 06:47:06;;;;;;;4.80;4.10;;;17.50;77.30;18.00;96445.00;;;;5003204;28;20228;-82
2023/05/07 06:49:33;;;;;;;4.37;3.97;;;17.50;77.40;18.10;96452.00;;;;4997438;28;20696;-82
2023/05/07 06:52:01;;;;;;;4.50;4.10;;;17.60;77.40;18.20;96456.00;;;;5010966;28;20221;-82
2023/05/07 06:54:28;;;;;;;3.77;3.47;;;17.70;77.40;18.30;96458.00;;;;4995747;28;20214;-82
2023/05/07 06:56:56;;;;;;;4.70;4.30;;;17.80;77.40;18.40;96461.00;;;;5017114;28;20690;-82
2023/05/07 06:59:24;;;;;;;4.07;3.77;;;17.80;77.50;18.50;96459.00;;;;5012257;28;20300;-82
2023/05/07 07:01:51;;;;;;;4.40;4.00;;;18.00;77.60;18.60;96456.00;;;;5008784;28;20234;-82
2023/05/07 07:04:22;;;;;;;4.30;4.00;;;18.10;77.60;18.70;96460.00;;;;5018382;28;20661;-82
2023/05/07 07:06:49;;;;;;;4.40;4.10;;;18.20;77.30;18.80;96463.00;;;;4987843;28;20198;-82
2023/05/07 07:09:16;;;;;;;4.67;4.30;;;18.30;77.40;19.00;96462.00;;;;5012059;28;20190;-82
2023/05/07 07:11:43;;;;;;;4.87;4.43;;;18.40;77.40;19.10;96464.00;;;;5016327;28;20221;-82
2023/05/07 07:14:10;;;;;;;4.67;4.37;;;18.50;77.40;19.30;96465.00;;;;5022998;28;20225;-82
2023/05/07 07:16:38;;;;;;;4.70;4.30;;;18.70;77.60;19.50;96465.00;;;;5014142;28;20289;-83
2023/05/07 07:19:05;;;;;;;4.60;4.23;;;18.80;77.60;19.70;96479.00;;;;4996983;28;20205;-83
2023/05/07 07:21:34;;;;;;;4.27;3.97;;;19.00;77.70;19.90;96484.00;;;;5017945;28;21433;-82
2023/05/07 07:24:02;;;;;;;4.50;4.10;;;19.10;77.30;20.10;96477.00;;;;5013910;28;20218;-82
2023/05/07 07:26:29;;;;;;;4.77;4.37;;;19.30;77.30;20.40;96472.00;;;;5031872;28;20559;-82
2023/05/07 07:28:56;;;;;;;4.10;3.80;;;19.50;77.20;20.50;96483.00;;;;5014704;28;20190;-82
2023/05/07 07:31:23;;;;;;;4.10;3.80;;;19.60;76.90;20.70;96478.00;;;;5023124;28;20221;-82
2023/05/07 07:33:51;;;;;;;4.53;4.13;;;19.80;76.50;20.90;96486.00;;;;5014879;28;20595;-82
2023/05/07 07:36:18;;;;;;;4.07;3.83;;;20.00;75.90;21.00;96478.00;;;;5014194;28;20201;-81
2023/05/07 07:38:47;;;;;;;3.93;3.63;;;20.10;75.50;21.20;96480.00;;;;5014823;28;20202;-82
2023/05/07 07:41:14;;;;;;;4.03;3.73;;;20.30;75.30;21.40;96483.00;;;;5018521;28;20289;-81
2023/05/07 07:43:41;;;;;;;3.80;3.60;;;20.40;75.30;21.60;96473.00;;;;5023520;28;20248;-82
2023/05/07 07:46:08;;;;;;;4.30;4.00;;;20.60;75.20;21.80;96477.00;;;;5017861;28;20659;-82
2023/05/07 07:48:37;;;;;;;4.10;3.67;;;20.80;75.20;21.90;96473.00;;;;5008654;28;20667;-82
2023/05/07 07:51:04;;;;;;;4.17;3.87;;;20.90;74.80;22.20;96485.00;;;;5025842;28;20812;-82
2023/05/07 07:53:34;;;;;;;3.93;3.47;;;21.10;74.30;22.30;96483.00;;;;5025415;28;20231;-81
2023/05/07 07:56:03;;;;;;;4.40;4.00;;;21.30;74.10;22.50;96486.00;;;;4993695;28;20198;-81
2023/05/07 07:58:30;;;;;;;4.27;3.97;;;21.50;74.00;22.70;96490.00;;;;4994339;28;20571;-81
2023/05/07 08:00:57;;;;;;;3.47;3.27;;;21.60;73.70;22.90;96492.00;;;;5013666;28;20202;-83
2023/05/07 08:03:24;;;;;;;3.43;3.23;;;21.80;73.40;23.10;96493.00;;;;5013271;28;20677;-83
2023/05/07 08:05:52;;;;;;;4.23;3.43;;;22.00;73.00;23.30;96489.00;;;;5011114;28;20222;-82
2023/05/07 08:08:19;;;;;;;3.00;2.80;;;22.10;72.50;23.50;96488.00;;;;5010299;28;20276;-82
2023/05/07 08:10:49;;;;;;;3.03;2.83;;;22.30;72.00;23.70;96494.00;;;;5010613;28;20594;-82
2023/05/07 08:13:19;;;;;;;3.07;2.70;;;22.50;71.90;23.90;96494.00;;;;5003182;28;20311;-83
2023/05/07 08:15:47;;;;;;;3.57;3.27;;;22.70;71.40;24.10;96494.00;;;;5022857;28;20190;-83
2023/05/07 08:18:14;;;;;;;3.50;3.30;;;22.80;70.70;24.30;96501.00;;;;5018976;28;20200;-82
2023/05/07 08:20:42;;;;;;;2.93;2.73;;;23.00;70.40;24.50;96501.00;;;;4989696;28;20205;-82
2023/05/07 08:23:09;;;;;;;3.37;3.07;;;23.20;70.20;24.70;96509.00;;;;5013756;28;20587;-83
2023/05/07 08:25:37;;;;;;;3.20;3.00;;;23.40;70.00;24.90;96498.00;;;;5021508;28;20710;-83
2023/05/07 08:28:05;;;;;;;2.70;2.50;;;23.50;69.70;25.20;96496.00;;;;4986449;28;20223;-83
2023/05/07 08:30:33;;;;;;;2.80;2.70;;;23.70;69.40;25.40;96504.00;;;;5034302;28;20209;-82
2023/05/07 08:33:01;;;;;;;2.60;2.40;;;23.90;69.30;25.60;96507.00;;;;5014512;28;20219;-82
2023/05/07 08:35:29;;;;;;;2.47;2.37;;;24.10;68.70;25.80;96503.00;;;;4991161;28;20289;-82
2023/05/07 08:37:56;;;;;;;2.60;2.40;;;24.30;68.40;26.10;96511.00;;;;5013652;28;20670;-83
2023/05/07 08:40:27;;;;;;;2.80;2.60;;;24.50;68.00;26.30;96504.00;;;;5020748;28;20198;-83
2023/05/07 08:42:55;;;;;;;2.93;2.50;;;24.70;66.80;26.50;96507.00;;;;5010907;28;20233;-83
2023/05/07 08:45:23;;;;;;;2.33;2.13;;;24.90;65.70;26.70;96513.00;;;;5010929;28;20210;-83
2023/05/07 08:47:59;;;;;;;2.60;2.40;;;25.00;65.40;26.90;96510.00;;;;5012100;28;20297;-83
2023/05/07 08:50:26;;;;;;;2.30;2.10;;;25.20;64.70;27.10;96508.00;;;;5012510;28;20208;-82
2023/05/07 08:52:54;;;;;;;1.90;1.80;;;25.40;64.90;27.20;96510.00;;;;5010156;28;20221;-82
2023/05/07 08:55:22;;;;;;;2.17;2.07;;;25.60;64.70;27.40;96513.00;;;;4993297;28;20267;-82
2023/05/07 08:57:50;;;;;;;2.33;2.17;;;25.70;64.30;27.60;96503.00;;;;5010981;28;20500;-82
2023/05/07 09:00:19;;;;;;;3.27;1.80;;;25.90;63.90;27.80;96506.00;;;;4990552;28;20808;-82
2023/05/07 09:02:47;;;;;;;1.70;1.60;;;26.10;63.50;28.00;96513.00;;;;4992643;28;20746;-82
2023/05/07 09:05:16;;;;;;;1.97;1.77;;;26.30;62.70;28.20;96504.00;;;;5020643;28;20225;-83
2023/05/07 09:07:43;;;;;;;1.97;1.87;;;26.50;61.50;28.30;96514.00;;;;5022742;28;20277;-82
2023/05/07 09:10:11;;;;;;;1.73;1.63;;;26.60;61.80;28.50;96519.00;;;;4992917;28;20210;-83
2023/05/07 09:12:39;;;;;;;1.50;1.30;;;26.80;61.70;28.70;96518.00;;;;5011425;28;20313;-83
2023/05/07 09:15:08;;;;;;;1.50;1.40;;;26.90;61.60;28.90;96524.00;;;;5004839;28;20197;-83
2023/05/07 09:17:35;;;;;;;1.75;1.65;;;27.10;61.00;29.20;96521.00;;;;5011609;28;20220;-83
2023/05/07 09:20:07;;;;;;;1.60;1.50;;;27.30;60.60;29.50;96525.00;;;;5011286;28;20197;-83
2023/05/07 09:22:38;;;;;;;1.60;1.50;;;27.50;59.50;29.80;96521.00;;;;4998820;28;20202;-82
2023/05/07 09:25:08;;;;;;;1.20;1.20;;;27.70;58.80;30.00;96520.00;;;;5010061;28;20198;-84
2023/05/07 09:27:36;;;;;;;4.43;1.20;;;27.90;58.40;30.30;96523.00;;;;5013578;28;20663;-83
2023/05/07 09:30:06;;;;;;;1.23;1.13;;;28.10;58.30;30.50;96524.00;;;;4993096;28;20277;-83
2023/05/07 09:32:37;;;;;;;1.10;1.10;;;28.40;57.70;30.80;96518.00;;;;4994087;28;20214;-84
2023/05/07 09:35:08;;;;;;;1.40;1.30;;;28.60;57.60;31.00;96530.00;;;;5011177;28;20198;-87
2023/05/07 09:37:37;;;;;;;1.65;1.33;;;28.90;57.90;31.30;96525.00;;;;5024087;28;20203;-85
2023/05/07 09:40:07;;;;;;;1.65;1.55;;;29.10;57.50;31.50;96531.00;;;;4999944;28;20198;-81
2023/05/07 09:42:35;;;;;;;1.55;1.45;;;29.40;56.90;31.80;96527.00;;;;5012454;28;20198;-82
2023/05/07 09:45:02;;;;;;;1.60;1.50;;;29.60;56.70;32.10;96521.00;;;;4994085;28;20598;-82
2023/05/07 09:47:39;;;;;;;2.72;1.30;;;29.90;56.00;32.30;96522.00;;;;5019611;28;20237;-82
2023/05/07 09:50:13;;;;;;;1.20;1.20;;;30.20;55.20;32.50;96521.00;;;;5018515;28;20190;-82
2023/05/07 09:52:49;;;;;;;1.60;1.50;;;30.50;55.10;32.60;96521.00;;;;5011300;28;20217;-83
2023/05/07 09:55:21;;;;;;;2.70;1.25;;;30.70;54.80;32.60;96531.00;;;;5006372;28;20198;-82
2023/05/07 09:57:52;;;;;;;1.88;1.63;;;30.90;53.60;32.60;96530.00;;;;4992271;28;20208;-82
2023/05/07 10:00:22;;;;;;;1.30;1.30;;;30.90;53.60;32.50;96529.00;;;;5014921;28;20201;-82
2023/05/07 10:02:53;;;;;;;1.50;1.40;;;31.10;53.30;32.50;96523.00;;;;5002590;28;20243;-82
2023/05/07 10:05:23;;;;;;;1.65;1.20;;;31.10;53.90;32.60;96525.00;;;;5016764;28;20209;-82
2023/05/07 10:07:54;;;;;;;2.22;1.40;;;31.20;53.80;32.70;96529.00;;;;5012600;28;20189;-83
2023/05/07 10:10:22;;;;;;;1.80;1.55;;;31.30;53.20;32.80;96523.00;;;;5009659;28;20205;-82
2023/05/07 10:12:52;;;;;;;1.60;1.50;;;31.50;52.30;32.80;96520.00;;;;5025059;28;20221;-83
2023/05/07 10:15:21;;;;;;;1.30;1.20;;;31.50;52.10;32.60;96523.00;;;;5018153;28;20197;-83
2023/05/07 10:17:50;;;;;;;1.33;1.23;;;31.40;50.80;32.30;96529.00;;;;5012178;28;20280;-83
2023/05/07 10:20:18;;;;;;;1.52;1.42;;;31.30;50.20;32.10;96526.00;;;;5011852;28;20281;-84
2023/05/07 10:22:49;;;;;;;1.10;0.90;;;31.20;50.30;32.00;96528.00;;;;5008281;28;20218;-83
2023/05/07 10:25:22;;;;;;;1.13;1.13;;;31.10;50.40;32.00;96525.00;;;;5007598;28;20194;-83
2023/05/07 10:27:51;;;;;;;1.02;1.02;;;31.10;50.80;32.00;96527.00;;;;5007817;28;20202;-83
2023/05/07 10:30:30;;;;;;;1.10;0.95;;;31.10;51.00;31.90;96521.00;;;;4991746;28;20572;-83
2023/05/07 10:33:05;;;;;;;1.38;1.38;;;31.10;50.00;31.90;96525.00;;;;5010242;28;20221;-83
2023/05/07 10:35:40;;;;;;;1.40;1.30;;;31.10;49.80;31.80;96530.00;;;;5009656;28;20204;-83
2023/05/07 10:38:09;;;;;;;1.00;1.00;;;31.00;50.00;31.70;96532.00;;;;4989132;28;20624;-83
2023/05/07 10:40:39;;;;;;;1.35;1.25;;;30.90;49.60;31.60;96516.00;;;;5014575;28;20212;-83
2023/05/07 10:43:07;;;;;;;0.73;0.73;;;30.90;49.70;31.60;96524.00;;;;5011110;28;20315;-83
2023/05/07 10:45:35;;;;;;;1.00;1.00;;;30.80;49.60;31.40;96520.00;;;;5013460;28;20202;-82
2023/05/07 10:48:14;;;;;;;1.48;1.35;;;30.80;49.00;31.30;96520.00;;;;5012665;28;20237;-83
2023/05/07 10:50:42;;;;;;;1.80;1.70;;;30.70;48.30;31.20;96528.00;;;;5010429;28;20205;-83
2023/05/07 10:53:30;;;;;;;1.58;1.40;;;30.60;48.20;31.10;96516.00;;;;5013440;28;20222;-82
2023/05/07 10:56:31;;;;;;;1.13;1.10;;;30.40;47.60;30.90;96517.00;;;;5003087;28;20681;-83
2023/05/07 10:59:33;;;;;;;1.50;1.30;;;30.30;47.30;30.70;96521.00;;;;5012140;28;20276;-83
2023/05/07 11:02:03;;;;;;;1.05;1.05;;;30.10;48.40;30.60;96518.00;;;;5020251;28;20572;-83